Terminal Aerodrome Forecast
Issued by NWS

Home | Current Version | Previous Version | Text Only | Print | Product List | Glossary On
Versions: 1 2 3 4 5 6 7 8 9 10 11 12
000
FTUS45 KRIW 052322
TAFCPR
TAF
KCPR 052322Z 0600/0624 31007KT P6SM SCT110 BKN200
     FM060200 20010KT P6SM SCT080 BKN150
     FM061300 08013G20KT P6SM VCSH SCT035 BKN070
     FM061900 08015G23KT P6SM VCTS SCT025CB BKN060=

USA.gov is the U.S. government's official web portal to all federal, state and local government web resources and services.